logo
Search for airport 
image banner adimage banner adimage banner ad
image banner ad

LSZP - Biel-Kappelen

Located in Biel, Switzerland

ICAO - LSZP, IATA -

Data provided by Airmate  

General information

Coordinates: N47°5'21" E7°17'24"
Elevation is 1437 feet MSL.
Magnetic variation is 2.885° East
View others Airports in Berne

Operational data

Special qualification required
Current time UTC:
Current local time:
Weather at : LSZG - Grenchen ( 14 km )
METAR: LSZG 162050Z AUTO 27004KT 210V310 9999 FEW060 OVC070 20/11 Q1020
TAF: TAF LSZG 161425Z 1615/1624 29013KT 9999 BKN050 BECMG 1617/1620 26003KT
View NOTAMs / SUP AIP / TFR affecting this airport [VIEW]
Communications frequencies: [VIEW]

Runways:

RWY identifierQFULength (ft)Width (ft)SurfaceLDA (ft)
0446°226482GRASS
22226°226482GRASS

Airport contact information

Address: Biel Switzerland

Other aviation service providers

Aviation club (not for profit)

Flugschule Seeland

Flugschule Seeland
flugschule@lszp.ch+41323844684

Segelfluggruppe Biel

Segelfluggruppe Biel
patrick.degen@bluewin.ch+41313029494
+41794886168

Satellite view of LSZP